Sunset Hills, Missouri
Current Conditions -  °F | °C
As of 6:53 AM on Friday 31 Oct 2014 (Local Time) from KCPS Reporting Station
Overcast Overcast  
Wind Chill: 43°   Ceiling: 3800
Heat Index: 49°   Visibility: 10mi
Dew Point: 41°   Wind: 15mph
Humidity: 74%   Direction: 350°N
Pressure: 30.16"   Gusts: 26mph
Location:  38.5348°N, 90.4131°W
Report Text: KCPS 311153Z 35013G23KT 10SM BKN038 OVC060 09/05 A3016 RMK AO2 SLP213 70002 T00940050 10094 20083 53023
Loading
Personal Weather Stations






























Interactive Weather Map
Tropical Storm Tracking
New forecast layout! Learn more

10-Day Weather Forecast

Advertisements
Track Severe Weather on mobile